Etusivu
METAR-TAF:

METAR-TAF

Lentoasemat :

Gamvik, Norja

Leveyspiiri: 71-02N, Pituuspiiri: 027-50E, korkeus merenpinnasta: 1 m

Tämänhetkinen sää

Tämä raportti tehtiin 7 tuntia ja 12 minuuttia sitten, kello 20.50 UTC
Tuuli 7 kn lounaasta
Lämpötila -6°C
Kosteus 73%
Ilmanpaine 989 hPa
Näkyvyys: 7000 m
Hajonneita pilviä 2400 ft:n korkeudessa
heikkoja lumikuuroja

METAR: ENMH 262050Z 22007KT 7000 -SHSN BKN024 M06/M10 Q0989

Aika: 05:02 (04:02 UTC)


TAF: puuttuu

Säähavainnot ja -ennusteet yli 4000 lentoasemalta (METAR- ja TAF-raportit).

Käytössä olevat sääasemat on merkitty karttaan keltaisilla ja punaisilla pisteillä.

Aseta hiiri pisteen päälle nähdäksesi sääaseman nimen.

Klikkaa sitten nähdäksesi säähavainnot ja -ennusteet.

Kartan vaihtaminen: klikkaa mustalla rastilla varustettuja vihreitä pisteitä, niin voit zoomata sisään; viivalla varustettua vihreää pistettä, niin voit zoomata ulos tai vihreitä nuolia, niin pääset viereisille kartoille.


METAR-TAF: